Terminal Aerodrome Forecast
Issued by NWS

Home | Current Version | Previous Version | Graphics & Text | Print | Product List | Glossary On
Versions: 1 2 3 4 5 6 7 8 9 10 11 12 13 14 15 16 17 18 19
286
FTUS43 KOAX 200540
TAFCDR
TAF
KCDR 200540Z 2006/2106 03005KT 2SM -SN BR OVC015
     FM201100 02004KT 1/2SM FG OVC007
     FM201500 05007KT 2SM BR SCT007 BKN015
     FM201800 05003KT P6SM OVC025=

USA.gov is the U.S. government's official web portal to all federal, state and local government web resources and services.